Kennebunk, ME (04043)

1:38 AM EST on December 22, 2014 (GMT -0500)
Seaspray | Change Station
CLOSE
Current Station
Personal Weather Station
Location: Biddeford, ME
Elevation: 20 ft
Nearby Weather Stations

Elev 20 ft 43.41 °N, 70.38 °W | Updated 12 minutes ago

Overcast
Overcast
29.8 °F
Feels Like 24 °F
N
6.0
Wind Variable Wind from NW
Gusts 11.0 mph

Today
High -- | Low -- °F
--% Chance of Precip.
Yesterday
High -- | Low -- °F
Precip. -- in
7:11 AM 4:09 PM
New Moon, 0% visible
Pressure 30.37 in
Visibility 10.0 miles
Clouds Overcast 5000 ft
Windchill 24 °F
Dew Point 26 °F
Humidity 85%
Rainfall 0.00 in
Snow Depth Not available.
UV 0 out of 12
Pollen .10 out of 12
Air Quality Not available.
Flu Activity Not available.
METAR KSFM 220635Z AUTO 36005KT 10SM OVC050 M02/M07 A3037 RMK AO1

More Conditions Fewer Conditions

Pressure 30.37 in
Visibility 10.0 miles
Clouds Overcast 5000 ft
Windchill 24 °F
Dew Point 26 °F
Humidity 85%
Rainfall 0.00 in
Snow Depth Not available.
UV 0 out of 12
Pollen .10 out of 12
Air Quality Not available.
Flu Activity Not available.
METAR KSFM 220635Z AUTO 36005KT 10SM OVC050 M02/M07 A3037 RMK AO1

More Conditions Fewer Conditions

10-Day Weather Forecast

Almanac

Astronomy

Dec. 22, 2014 Rise Set
Actual Time
Civil Twilight
Nautical Twilight
Astronomical Twilight
Moon
Length of Visible Light
Length of Day
Tomorrow will be .
, % of the Moon is Illuminated

Today's Extremes

State Highs State Lows

Community

WunderPhotos

Upload Photos

1,779,559 photos uploaded!

WunderBlogs® & News

Nearby

Air Quality

  Air Quality AQ Index Pollutant
Not available.

Snow Depth

Station Depth Elevation

Earthquake Activity

City Distance Mag. Time & Date
Minimum magnitude displayed is 2.5.

Coastal Water Temperatures

Place Temperature

Nearby Weather Stations